Time;durP1;ratioP1;P1;durP2;ratioP2;P2;SDS_P1;SDS_P2;PMS_P1;PMS_P2;Temp;Humidity;BMP_temperature;BMP_pressure;BME280_temperature;BME280_humidity;BME280_pressure;Samples;Min_cycle;Max_cycle;Signal;HPM_P1;HPM_P2
2022/05/14 00:01:35;;;;;;;11.32;6.35;;;;;;;;;;5019512;28;20037;-75
2022/05/14 00:04:02;;;;;;;14.07;6.95;;;;;;;;;;5015276;28;20038;-75
2022/05/14 00:06:29;;;;;;;11.50;6.88;;;;;;;;;;5015527;28;20030;-75
2022/05/14 00:08:56;;;;;;;11.00;6.22;;;;;;;;;;5013145;28;20034;-75
2022/05/14 00:14:07;;;;;;;11.05;5.90;;;;;;;;;;4998118;28;20045;-76
2022/05/14 00:16:35;;;;;;;13.05;6.20;;;;;;;;;;5014666;28;20038;-76
2022/05/14 00:19:02;;;;;;;12.40;6.50;;;;;;;;;;5019452;28;20133;-76
2022/05/14 00:21:28;;;;;;;11.18;5.53;;;;;;;;;;5019472;28;20489;-75
2022/05/14 00:23:54;;;;;;;15.45;6.53;;;;;;;;;;5019079;28;20368;-76
2022/05/14 00:26:21;;;;;;;11.45;6.50;;;;;;;;;;5012634;28;20049;-75
2022/05/14 00:28:47;;;;;;;11.80;6.32;;;;;;;;;;5011786;28;20030;-75
2022/05/14 00:31:13;;;;;;;8.70;5.93;;;;;;;;;;5013556;28;20132;-75
2022/05/14 00:33:39;;;;;;;10.05;6.18;;;;;;;;;;5013871;28;20038;-75
2022/05/14 00:36:06;;;;;;;12.60;5.88;;;;;;;;;;5011629;28;20528;-76
2022/05/14 00:38:32;;;;;;;11.68;5.75;;;;;;;;;;5016824;28;20426;-76
2022/05/14 00:41:03;;;;;;;14.48;5.85;;;;;;;;;;5013202;28;20072;-76
2022/05/14 00:43:30;;;;;;;17.03;6.60;;;;;;;;;;5009641;28;20117;-75
2022/05/14 00:45:59;;;;;;;14.70;6.75;;;;;;;;;;5015653;28;20045;-75
2022/05/14 00:48:26;;;;;;;13.27;5.78;;;;;;;;;;5003980;28;20045;-75
2022/05/14 00:50:55;;;;;;;9.50;5.40;;;;;;;;;;5017412;28;20123;-76
2022/05/14 00:53:21;;;;;;;10.07;5.68;;;;;;;;;;5013693;28;20038;-75
2022/05/14 00:55:48;;;;;;;8.95;4.57;;;;;;;;;;5009278;28;20033;-75
2022/05/14 00:58:17;;;;;;;9.70;5.60;;;;;;;;;;5007411;28;20038;-75
2022/05/14 01:00:43;;;;;;;9.40;5.32;;;;;;;;;;5002416;28;20034;-76
2022/05/14 01:03:09;;;;;;;9.00;4.80;;;;;;;;;;5013643;28;20132;-76
2022/05/14 01:05:36;;;;;;;8.57;5.22;;;;;;;;;;5014825;28;20025;-76
2022/05/14 01:08:03;;;;;;;10.90;5.72;;;;;;;;;;5013769;28;20033;-76
2022/05/14 01:10:34;;;;;;;9.80;5.07;;;;;;;;;;5018370;28;20037;-76
2022/05/14 01:13:01;;;;;;;11.27;5.25;;;;;;;;;;5016055;28;20033;-75
2022/05/14 01:15:39;;;;;;;12.57;5.80;;;;;;;;;;5016787;28;20459;-76
2022/05/14 01:18:05;;;;;;;12.85;5.65;;;;;;;;;;5013837;28;20402;-76
2022/05/14 01:20:35;;;;;;;12.07;5.28;;;;;;;;;;5010170;28;20033;-76
2022/05/14 01:23:20;;;;;;;11.75;5.28;;;;;;;;;;5020351;28;20653;-76
2022/05/14 01:28:42;;;;;;;9.93;4.57;;;;;;;;;;5021061;28;20505;-75
2022/05/14 01:31:08;;;;;;;12.90;5.65;;;;;;;;;;5015956;28;20034;-76
2022/05/14 01:33:36;;;;;;;8.60;5.82;;;;;;;;;;5018854;28;20060;-75
2022/05/14 01:36:04;;;;;;;9.32;4.97;;;;;;;;;;5011509;28;20029;-75
2022/05/14 01:38:30;;;;;;;10.13;4.90;;;;;;;;;;5017033;28;20144;-75
2022/05/14 01:40:56;;;;;;;11.50;5.03;;;;;;;;;;5009857;28;20145;-76
2022/05/14 01:43:22;;;;;;;8.32;4.43;;;;;;;;;;5014646;28;20862;-75
2022/05/14 01:45:48;;;;;;;9.65;4.80;;;;;;;;;;5014463;28;20053;-76
2022/05/14 01:48:14;;;;;;;13.52;6.43;;;;;;;;;;5017124;28;20041;-75
2022/05/14 01:50:41;;;;;;;11.75;5.65;;;;;;;;;;5014436;28;20042;-76
2022/05/14 01:53:07;;;;;;;11.93;6.30;;;;;;;;;;5017689;28;20034;-75
2022/05/14 01:55:34;;;;;;;12.88;6.65;;;;;;;;;;5011364;28;20080;-75
2022/05/14 01:58:00;;;;;;;13.88;7.35;;;;;;;;;;5014025;28;20038;-76
2022/05/14 02:00:26;;;;;;;10.52;5.95;;;;;;;;;;5013376;28;20139;-76
2022/05/14 02:02:53;;;;;;;14.25;7.18;;;;;;;;;;5018933;28;20049;-75
2022/05/14 02:05:19;;;;;;;14.60;6.68;;;;;;;;;;5009706;28;20022;-76
2022/05/14 02:07:45;;;;;;;12.45;6.75;;;;;;;;;;5005547;28;20033;-75
2022/05/14 02:10:12;;;;;;;11.90;6.63;;;;;;;;;;5016386;28;20029;-76
2022/05/14 02:12:40;;;;;;;12.65;6.30;;;;;;;;;;5013765;28;20049;-76
2022/05/14 02:15:06;;;;;;;11.63;7.10;;;;;;;;;;5017952;28;20049;-76
2022/05/14 02:17:32;;;;;;;13.90;7.43;;;;;;;;;;5012729;28;20081;-76
2022/05/14 02:19:58;;;;;;;9.07;6.07;;;;;;;;;;5017302;28;20029;-75
2022/05/14 02:22:24;;;;;;;10.77;7.13;;;;;;;;;;5017125;28;20040;-76
2022/05/14 02:24:50;;;;;;;12.30;6.72;;;;;;;;;;5017966;28;20533;-76
2022/05/14 02:27:16;;;;;;;17.73;7.35;;;;;;;;;;5011049;28;20133;-75
2022/05/14 02:29:51;;;;;;;15.32;6.68;;;;;;;;;;5018510;28;20415;-76
2022/05/14 02:32:21;;;;;;;14.05;7.13;;;;;;;;;;5014657;28;20041;-75
2022/05/14 02:34:47;;;;;;;10.07;5.88;;;;;;;;;;5013869;28;20026;-75
2022/05/14 02:37:14;;;;;;;12.07;6.35;;;;;;;;;;5011185;28;20045;-75
2022/05/14 02:39:40;;;;;;;30.85;7.32;;;;;;;;;;5016244;28;20062;-75
2022/05/14 02:42:06;;;;;;;20.85;6.90;;;;;;;;;;5021774;28;20052;-76
2022/05/14 02:44:32;;;;;;;11.48;7.30;;;;;;;;;;5020895;28;20478;-75
2022/05/14 02:46:58;;;;;;;11.15;6.72;;;;;;;;;;5016654;28;20065;-75
2022/05/14 02:49:24;;;;;;;12.30;6.93;;;;;;;;;;5012890;28;20037;-76
2022/05/14 02:51:50;;;;;;;15.73;8.18;;;;;;;;;;5019030;28;20475;-75
2022/05/14 02:54:16;;;;;;;15.70;7.05;;;;;;;;;;5021001;28;20045;-75
2022/05/14 02:56:42;;;;;;;14.40;6.45;;;;;;;;;;5014169;28;20479;-75
2022/05/14 02:59:08;;;;;;;10.15;6.18;;;;;;;;;;5015268;28;20108;-76
2022/05/14 03:01:35;;;;;;;14.45;6.10;;;;;;;;;;5016209;28;20376;-76
2022/05/14 03:04:01;;;;;;;10.63;6.07;;;;;;;;;;5018685;28;20026;-76
2022/05/14 03:06:27;;;;;;;12.93;7.35;;;;;;;;;;5017529;28;20030;-75
2022/05/14 03:08:53;;;;;;;12.35;6.25;;;;;;;;;;5021581;28;20160;-76
2022/05/14 03:11:20;;;;;;;17.85;7.10;;;;;;;;;;5012898;28;20035;-75
2022/05/14 03:13:46;;;;;;;12.90;7.15;;;;;;;;;;5018475;28;20044;-76
2022/05/14 03:16:12;;;;;;;12.07;6.50;;;;;;;;;;5015822;28;20041;-75
2022/05/14 03:18:38;;;;;;;11.23;6.13;;;;;;;;;;5016907;28;20060;-76
2022/05/14 03:21:04;;;;;;;11.57;5.50;;;;;;;;;;5019969;28;20030;-76
2022/05/14 03:23:30;;;;;;;9.55;5.53;;;;;;;;;;5013485;28;20041;-75
2022/05/14 03:25:56;;;;;;;11.77;5.35;;;;;;;;;;5017297;28;20124;-75
2022/05/14 03:28:22;;;;;;;10.38;5.57;;;;;;;;;;5014130;28;20176;-76
2022/05/14 03:30:48;;;;;;;8.75;5.10;;;;;;;;;;5020373;28;20092;-75
2022/05/14 03:33:14;;;;;;;10.23;5.65;;;;;;;;;;5014267;28;20483;-76
2022/05/14 03:35:41;;;;;;;8.38;4.85;;;;;;;;;;5017127;28;20037;-76
2022/05/14 03:38:07;;;;;;;11.38;5.30;;;;;;;;;;5017405;28;20065;-75
2022/05/14 03:40:33;;;;;;;12.10;5.88;;;;;;;;;;5012948;28;20088;-75
2022/05/14 03:42:59;;;;;;;10.13;5.32;;;;;;;;;;5011982;28;20045;-75
2022/05/14 03:45:25;;;;;;;10.95;5.90;;;;;;;;;;5021286;28;20034;-75
2022/05/14 03:47:51;;;;;;;10.65;5.72;;;;;;;;;;5016826;28;20112;-76
2022/05/14 03:50:17;;;;;;;10.82;5.90;;;;;;;;;;5017194;28;20547;-76
2022/05/14 03:52:43;;;;;;;10.80;5.97;;;;;;;;;;5025163;28;20134;-75
2022/05/14 03:55:09;;;;;;;11.15;5.63;;;;;;;;;;5015478;28;20042;-76
2022/05/14 03:57:35;;;;;;;12.73;5.65;;;;;;;;;;5019887;28;20040;-75
2022/05/14 04:00:01;;;;;;;13.40;6.13;;;;;;;;;;5016092;28;20045;-75
2022/05/14 04:02:27;;;;;;;8.45;5.97;;;;;;;;;;4991650;28;20904;-76
2022/05/14 04:04:53;;;;;;;10.60;5.97;;;;;;;;;;5011961;28;20038;-75
2022/05/14 04:07:20;;;;;;;9.40;5.57;;;;;;;;;;5019750;28;20045;-75
2022/05/14 04:09:46;;;;;;;12.15;6.07;;;;;;;;;;5018439;28;20713;-76
2022/05/14 04:12:12;;;;;;;10.10;6.10;;;;;;;;;;5018021;28;20137;-75
2022/05/14 04:14:38;;;;;;;11.63;6.68;;;;;;;;;;5019327;28;20025;-75
2022/05/14 04:17:04;;;;;;;14.23;6.35;;;;;;;;;;5010649;28;20579;-75
2022/05/14 04:19:31;;;;;;;10.05;5.90;;;;;;;;;;5012779;28;20060;-76
2022/05/14 04:21:56;;;;;;;11.27;6.25;;;;;;;;;;5004029;28;20033;-76
2022/05/14 04:24:22;;;;;;;15.40;5.75;;;;;;;;;;5014965;28;20112;-75
2022/05/14 04:26:48;;;;;;;10.00;5.22;;;;;;;;;;5019454;28;20049;-75
2022/05/14 04:29:14;;;;;;;9.93;6.25;;;;;;;;;;5014248;28;20069;-75
2022/05/14 04:31:40;;;;;;;11.57;5.90;;;;;;;;;;5017226;28;20436;-75
2022/05/14 04:34:07;;;;;;;11.68;5.68;;;;;;;;;;5014905;28;20129;-75
2022/05/14 04:36:33;;;;;;;10.13;5.40;;;;;;;;;;5015882;28;20494;-76
2022/05/14 04:38:59;;;;;;;13.18;5.68;;;;;;;;;;5016804;28;20422;-76
2022/05/14 04:41:30;;;;;;;10.77;5.72;;;;;;;;;;5014839;28;20079;-75
2022/05/14 04:43:56;;;;;;;11.82;5.90;;;;;;;;;;5014472;28;20075;-76
2022/05/14 04:46:22;;;;;;;8.82;5.60;;;;;;;;;;5015846;28;20034;-75
2022/05/14 04:48:48;;;;;;;9.38;5.63;;;;;;;;;;5017124;28;20095;-75
2022/05/14 04:51:14;;;;;;;11.07;5.68;;;;;;;;;;5017683;28;20079;-75
2022/05/14 04:53:40;;;;;;;13.00;6.45;;;;;;;;;;5018321;28;20037;-75
2022/05/14 04:56:06;;;;;;;11.52;6.93;;;;;;;;;;5010170;28;20108;-75
2022/05/14 04:58:32;;;;;;;12.10;7.32;;;;;;;;;;5008061;28;20936;-75
2022/05/14 05:00:58;;;;;;;13.55;6.78;;;;;;;;;;5008148;28;20353;-75
2022/05/14 05:03:24;;;;;;;12.15;6.15;;;;;;;;;;5011739;28;20037;-75
2022/05/14 05:05:52;;;;;;;11.85;6.63;;;;;;;;;;5017638;28;20087;-75
2022/05/14 05:08:18;;;;;;;10.27;5.20;;;;;;;;;;5008600;28;20042;-75
2022/05/14 05:10:45;;;;;;;11.30;6.00;;;;;;;;;;5012343;28;20039;-75
2022/05/14 05:13:12;;;;;;;11.63;5.93;;;;;;;;;;5015207;28;20037;-75
2022/05/14 05:15:39;;;;;;;13.68;6.72;;;;;;;;;;5016949;28;20037;-75
2022/05/14 05:18:06;;;;;;;13.90;6.22;;;;;;;;;;5016752;28;20051;-75
2022/05/14 05:20:32;;;;;;;13.50;6.55;;;;;;;;;;5006013;28;20383;-75
2022/05/14 05:22:59;;;;;;;13.40;5.90;;;;;;;;;;5007987;28;20084;-75
2022/05/14 05:25:25;;;;;;;13.98;7.10;;;;;;;;;;5011981;28;20125;-75
2022/05/14 05:27:51;;;;;;;11.07;6.82;;;;;;;;;;5014832;28;20646;-75
2022/05/14 05:30:17;;;;;;;9.35;6.72;;;;;;;;;;5015127;28;20037;-75
2022/05/14 05:32:43;;;;;;;10.10;6.03;;;;;;;;;;5016873;28;20034;-75
2022/05/14 05:35:09;;;;;;;10.75;5.70;;;;;;;;;;5014818;28;20041;-75
2022/05/14 05:37:35;;;;;;;9.13;6.07;;;;;;;;;;5011534;28;20101;-76
2022/05/14 05:40:01;;;;;;;13.02;5.88;;;;;;;;;;5012365;28;20037;-75
2022/05/14 05:42:28;;;;;;;15.18;6.13;;;;;;;;;;5010438;28;20232;-75
2022/05/14 05:44:55;;;;;;;10.30;5.85;;;;;;;;;;5000554;28;20108;-75
2022/05/14 05:47:21;;;;;;;16.20;5.93;;;;;;;;;;5009727;28;20037;-75
2022/05/14 05:49:47;;;;;;;12.20;5.97;;;;;;;;;;5003311;28;20045;-76
2022/05/14 05:52:13;;;;;;;10.48;6.57;;;;;;;;;;5009320;28;20038;-76
2022/05/14 05:57:30;;;;;;;12.93;5.13;;;;;;;;;;5009779;28;20733;-75
2022/05/14 05:59:56;;;;;;;9.73;4.65;;;;;;;;;;5010606;28;20018;-75
2022/05/14 06:02:22;;;;;;;7.78;4.25;;;;;;;;;;5001449;28;20030;-75
2022/05/14 06:04:48;;;;;;;7.53;4.18;;;;;;;;;;5010578;28;20026;-75
2022/05/14 06:07:14;;;;;;;13.68;7.32;;;;;;;;;;4998663;28;20435;-76
2022/05/14 06:09:40;;;;;;;11.27;5.80;;;;;;;;;;5004439;28;20025;-75
2022/05/14 06:12:07;;;;;;;13.05;6.90;;;;;;;;;;5013654;28;20041;-75
2022/05/14 06:14:33;;;;;;;11.02;4.53;;;;;;;;;;5010937;28;20030;-76
2022/05/14 06:16:59;;;;;;;6.60;4.28;;;;;;;;;;5005213;28;20423;-76
2022/05/14 06:19:25;;;;;;;10.70;4.65;;;;;;;;;;5010056;28;20057;-76
2022/05/14 06:21:51;;;;;;;11.52;4.05;;;;;;;;;;5010008;28;20451;-75
2022/05/14 06:24:17;;;;;;;10.25;4.80;;;;;;;;;;5007576;28;20049;-75
2022/05/14 06:26:43;;;;;;;11.68;4.95;;;;;;;;;;5005883;28;20053;-76
2022/05/14 06:29:09;;;;;;;9.00;4.32;;;;;;;;;;5011798;28;20041;-75
2022/05/14 06:31:36;;;;;;;9.90;4.03;;;;;;;;;;5003978;28;20061;-76
2022/05/14 06:34:02;;;;;;;8.23;4.20;;;;;;;;;;5010040;28;20026;-76
2022/05/14 06:36:28;;;;;;;9.43;5.10;;;;;;;;;;5012254;28;20037;-75
2022/05/14 06:38:54;;;;;;;10.43;5.20;;;;;;;;;;5009942;28;20040;-76
2022/05/14 06:41:20;;;;;;;8.40;5.22;;;;;;;;;;5008191;28;20477;-76
2022/05/14 06:43:46;;;;;;;13.77;6.60;;;;;;;;;;5009159;28;20558;-76
2022/05/14 06:46:13;;;;;;;12.43;5.30;;;;;;;;;;5010704;28;20030;-75
2022/05/14 06:48:39;;;;;;;10.20;4.70;;;;;;;;;;5011991;28;20506;-75
2022/05/14 06:51:06;;;;;;;10.27;4.60;;;;;;;;;;5007727;28;20044;-76
2022/05/14 06:53:33;;;;;;;7.32;4.40;;;;;;;;;;5006047;28;20045;-76
2022/05/14 06:56:00;;;;;;;13.52;4.68;;;;;;;;;;5002603;28;20040;-76
2022/05/14 06:58:28;;;;;;;8.38;4.22;;;;;;;;;;5004374;28;20184;-76
2022/05/14 07:00:55;;;;;;;10.05;4.57;;;;;;;;;;5008785;28;20391;-76
2022/05/14 07:08:51;;;;;;;6.50;3.92;;;;;;;;;;5007232;28;20506;-75
2022/05/14 07:11:17;;;;;;;8.32;4.15;;;;;;;;;;5009833;28;20075;-76
2022/05/14 07:13:44;;;;;;;9.90;4.13;;;;;;;;;;5008815;28;20026;-75
2022/05/14 07:16:10;;;;;;;11.32;4.18;;;;;;;;;;5013417;28;20061;-76
2022/05/14 07:18:36;;;;;;;7.22;4.00;;;;;;;;;;5004862;28;20154;-76
2022/05/14 07:21:02;;;;;;;6.43;4.03;;;;;;;;;;5006254;28;20786;-76
2022/05/14 07:23:28;;;;;;;10.60;4.30;;;;;;;;;;5010456;28;20048;-76
2022/05/14 07:25:55;;;;;;;8.55;3.63;;;;;;;;;;5013301;28;20803;-77
2022/05/14 07:28:21;;;;;;;8.20;3.97;;;;;;;;;;5014676;28;20047;-76
2022/05/14 07:30:47;;;;;;;6.68;3.80;;;;;;;;;;5013052;28;20745;-76
2022/05/14 07:33:13;;;;;;;12.30;4.63;;;;;;;;;;5007053;28;20590;-76
2022/05/14 07:35:39;;;;;;;10.43;4.70;;;;;;;;;;5011001;28;20139;-76
2022/05/14 07:38:06;;;;;;;10.50;4.80;;;;;;;;;;5006623;28;20835;-76
2022/05/14 07:40:34;;;;;;;9.55;4.40;;;;;;;;;;5009879;28;20021;-75
2022/05/14 07:43:02;;;;;;;7.15;3.80;;;;;;;;;;5007696;28;20889;-75
2022/05/14 07:45:32;;;;;;;9.30;4.68;;;;;;;;;;5007651;28;20026;-75
2022/05/14 07:47:58;;;;;;;11.63;4.82;;;;;;;;;;5006926;28;20049;-76
2022/05/14 07:50:25;;;;;;;8.55;4.25;;;;;;;;;;5008064;28;20157;-76
2022/05/14 07:52:53;;;;;;;12.60;4.15;;;;;;;;;;5007200;28;20464;-75
2022/05/14 07:55:19;;;;;;;12.25;4.05;;;;;;;;;;5005653;28;20132;-76
2022/05/14 07:57:45;;;;;;;8.63;3.97;;;;;;;;;;5012438;28;20053;-75
2022/05/14 08:00:12;;;;;;;9.13;3.92;;;;;;;;;;5012491;28;20079;-75
2022/05/14 08:02:39;;;;;;;13.52;5.97;;;;;;;;;;5013237;28;20037;-76
2022/05/14 08:05:08;;;;;;;9.18;4.63;;;;;;;;;;5012338;28;20029;-76
2022/05/14 08:07:34;;;;;;;10.20;4.47;;;;;;;;;;5005236;28;20052;-75
2022/05/14 08:10:00;;;;;;;9.18;4.90;;;;;;;;;;5007060;28;20042;-75
2022/05/14 08:12:27;;;;;;;9.68;5.07;;;;;;;;;;5004429;28;20046;-75
2022/05/14 08:14:53;;;;;;;10.88;4.53;;;;;;;;;;5010344;28;20057;-76
2022/05/14 08:17:19;;;;;;;10.85;4.10;;;;;;;;;;5010957;28;20048;-75
2022/05/14 08:19:45;;;;;;;9.85;4.72;;;;;;;;;;5009263;28;20017;-76
2022/05/14 08:24:55;;;;;;;8.23;4.40;;;;;;;;;;5012313;28;20045;-75
2022/05/14 08:27:21;;;;;;;8.40;4.40;;;;;;;;;;5006875;28;20064;-75
2022/05/14 08:29:48;;;;;;;13.45;4.63;;;;;;;;;;5008198;28;20108;-76
2022/05/14 08:32:18;;;;;;;11.70;5.13;;;;;;;;;;5012922;28;20041;-76
2022/05/14 08:34:44;;;;;;;15.27;4.80;;;;;;;;;;5011261;28;20588;-76
2022/05/14 08:37:10;;;;;;;9.27;4.43;;;;;;;;;;5008794;28;20037;-76
2022/05/14 08:39:37;;;;;;;8.95;4.43;;;;;;;;;;5009875;28;20101;-75
2022/05/14 08:42:06;;;;;;;9.75;4.72;;;;;;;;;;5008494;28;20034;-76
2022/05/14 08:44:34;;;;;;;11.18;4.88;;;;;;;;;;5008210;28;20034;-75
2022/05/14 08:47:06;;;;;;;8.18;4.50;;;;;;;;;;5009428;28;20026;-76
2022/05/14 08:49:34;;;;;;;16.48;4.65;;;;;;;;;;5005774;28;20026;-75
2022/05/14 08:52:01;;;;;;;11.00;4.93;;;;;;;;;;5009583;28;20044;-76
2022/05/14 08:54:27;;;;;;;12.88;4.47;;;;;;;;;;5006161;28;20033;-76
2022/05/14 08:57:12;;;;;;;7.95;4.40;;;;;;;;;;5007155;28;20432;-75
2022/05/14 08:59:52;;;;;;;9.73;4.57;;;;;;;;;;5013181;28;20095;-76
2022/05/14 09:02:18;;;;;;;9.05;4.40;;;;;;;;;;5009699;28;20046;-76
2022/05/14 09:04:44;;;;;;;11.10;5.07;;;;;;;;;;5008228;28;20549;-75
2022/05/14 09:07:11;;;;;;;9.98;5.28;;;;;;;;;;5011001;28;20097;-76
2022/05/14 09:09:47;;;;;;;7.60;4.43;;;;;;;;;;5005775;28;20056;-76
2022/05/14 09:12:16;;;;;;;9.95;5.10;;;;;;;;;;5010352;28;20149;-76
2022/05/14 09:14:45;;;;;;;10.50;4.97;;;;;;;;;;5008920;28;20035;-75
2022/05/14 09:17:15;;;;;;;9.07;4.53;;;;;;;;;;5006841;28;20153;-76
2022/05/14 09:19:43;;;;;;;8.57;4.67;;;;;;;;;;5006511;28;20511;-76
2022/05/14 09:22:11;;;;;;;10.27;4.53;;;;;;;;;;5008652;28;20034;-76
2022/05/14 09:24:46;;;;;;;8.82;4.55;;;;;;;;;;5011597;28;20113;-75
2022/05/14 09:27:20;;;;;;;9.98;5.00;;;;;;;;;;5009189;28;20069;-76
2022/05/14 09:29:47;;;;;;;9.93;4.30;;;;;;;;;;5005168;28;20030;-76
2022/05/14 09:32:13;;;;;;;9.82;4.88;;;;;;;;;;5006606;28;20046;-76
2022/05/14 09:34:39;;;;;;;9.00;4.93;;;;;;;;;;5009525;28;20091;-75
2022/05/14 09:37:11;;;;;;;11.05;5.05;;;;;;;;;;5009450;28;20038;-76
2022/05/14 09:39:37;;;;;;;;;;;;;;;;;;5006169;28;20048;-76
2022/05/14 09:42:04;;;;;;;11.40;5.35;;;;;;;;;;5014723;28;20274;-76
2022/05/14 09:44:34;;;;;;;11.55;5.13;;;;;;;;;;5009264;28;20021;-76
2022/05/14 09:47:11;;;;;;;10.90;5.63;;;;;;;;;;5010518;28;20033;-76
2022/05/14 09:49:42;;;;;;;9.77;4.78;;;;;;;;;;5013407;28;20084;-76
2022/05/14 09:52:07;;;;;;;11.88;5.18;;;;;;;;;;5011516;28;20033;-76
2022/05/14 09:54:37;;;;;;;8.90;4.70;;;;;;;;;;5010831;28;20570;-76
2022/05/14 09:57:06;;;;;;;9.82;5.50;;;;;;;;;;5008449;28;20040;-76
2022/05/14 09:59:37;;;;;;;13.45;5.05;;;;;;;;;;5009554;28;20888;-76
2022/05/14 10:02:26;;;;;;;14.27;5.95;;;;;;;;;;5007243;28;20113;-77
2022/05/14 10:04:57;;;;;;;9.70;4.88;;;;;;;;;;5002364;28;20115;-76
2022/05/14 10:07:27;;;;;;;10.45;4.60;;;;;;;;;;5006472;28;20076;-75
2022/05/14 10:09:53;;;;;;;10.95;5.40;;;;;;;;;;5004995;28;20056;-77
2022/05/14 10:12:25;;;;;;;6.93;4.72;;;;;;;;;;5013196;28;20145;-76
2022/05/14 10:14:56;;;;;;;6.95;4.60;;;;;;;;;;5000778;28;20038;-77
2022/05/14 10:17:35;;;;;;;9.80;5.05;;;;;;;;;;5006515;28;20041;-77
2022/05/14 10:20:06;;;;;;;9.13;4.72;;;;;;;;;;5004265;28;20037;-76
2022/05/14 10:26:44;;;;;;;;;;;;;;;;;;5008090;28;20030;-76
2022/05/14 10:28:10;;;;;;;8.98;5.75;;;;;;;;;;5017624;28;20783;-75
2022/05/14 10:30:52;;;;;;;8.90;4.03;;;;;;;;;;5014088;28;20030;-75
2022/05/14 10:33:22;;;;;;;7.20;4.13;;;;;;;;;;5009078;28;20133;-75
2022/05/14 10:35:48;;;;;;;10.02;4.88;;;;;;;;;;5011423;28;20040;-76
2022/05/14 10:38:18;;;;;;;8.45;4.10;;;;;;;;;;5012604;28;20030;-75
2022/05/14 10:40:49;;;;;;;7.75;3.92;;;;;;;;;;5012095;28;20068;-76
2022/05/14 10:43:24;;;;;;;7.97;4.05;;;;;;;;;;5011891;28;20917;-75
2022/05/14 10:45:52;;;;;;;12.70;4.20;;;;;;;;;;5002864;28;20553;-76
2022/05/14 10:48:18;;;;;;;10.18;4.07;;;;;;;;;;5014337;28;20041;-75
2022/05/14 10:50:44;;;;;;;7.57;3.72;;;;;;;;;;5014794;28;20427;-75
2022/05/14 10:53:10;;;;;;;8.70;3.28;;;;;;;;;;5012029;28;20038;-75
2022/05/14 10:55:45;;;;;;;9.52;4.75;;;;;;;;;;5017692;28;20316;-75
2022/05/14 10:58:20;;;;;;;5.45;3.03;;;;;;;;;;5005465;28;20042;-76
2022/05/14 11:00:47;;;;;;;10.55;3.88;;;;;;;;;;5008397;28;20026;-75
2022/05/14 11:03:13;;;;;;;9.40;3.58;;;;;;;;;;5011275;28;20059;-75
2022/05/14 11:06:09;;;;;;;7.47;3.70;;;;;;;;;;5014074;28;20061;-75
2022/05/14 11:08:45;;;;;;;9.93;4.07;;;;;;;;;;5007020;28;20092;-75
2022/05/14 11:11:16;;;;;;;6.75;3.17;;;;;;;;;;5012653;28;20034;-75
2022/05/14 11:13:43;;;;;;;7.40;3.50;;;;;;;;;;5002728;28;20399;-75
2022/05/14 11:16:10;;;;;;;9.30;3.55;;;;;;;;;;5015958;28;20064;-75
2022/05/14 11:18:43;;;;;;;7.90;3.72;;;;;;;;;;5014156;28;20041;-75
2022/05/14 11:21:09;;;;;;;7.72;3.75;;;;;;;;;;5013371;28;20058;-75
2022/05/14 11:23:49;;;;;;;7.75;3.22;;;;;;;;;;5009471;28;20474;-75
2022/05/14 11:26:16;;;;;;;7.40;3.28;;;;;;;;;;5011264;28;20052;-75
2022/05/14 11:28:44;;;;;;;11.82;3.97;;;;;;;;;;5012321;28;20103;-75
2022/05/14 11:31:14;;;;;;;8.15;3.05;;;;;;;;;;5013102;28;20486;-75
2022/05/14 11:33:41;;;;;;;7.72;3.83;;;;;;;;;;5019754;28;20099;-75
2022/05/14 11:36:13;;;;;;;8.07;3.97;;;;;;;;;;5011003;28;20033;-75
2022/05/14 11:38:45;;;;;;;7.63;3.58;;;;;;;;;;5009300;28;20103;-75
2022/05/14 11:41:12;;;;;;;9.85;4.50;;;;;;;;;;5011185;28;20101;-75
2022/05/14 11:43:46;;;;;;;8.98;2.70;;;;;;;;;;5006659;28;20061;-75
2022/05/14 11:46:32;;;;;;;5.82;3.00;;;;;;;;;;5008362;28;20479;-74
2022/05/14 11:49:04;;;;;;;5.50;3.35;;;;;;;;;;5004714;28;20038;-75
2022/05/14 11:51:30;;;;;;;6.47;2.97;;;;;;;;;;5002014;28;20056;-74
2022/05/14 11:54:02;;;;;;;6.13;2.80;;;;;;;;;;5005468;28;20469;-75
2022/05/14 11:56:31;;;;;;;6.80;2.95;;;;;;;;;;5008898;28;20038;-75
2022/05/14 11:59:03;;;;;;;5.47;2.53;;;;;;;;;;4990620;28;20152;-75
2022/05/14 12:01:33;;;;;;;7.68;3.25;;;;;;;;;;5013266;28;20030;-75
2022/05/14 12:04:01;;;;;;;5.57;2.28;;;;;;;;;;5007657;28;20022;-75
2022/05/14 12:06:46;;;;;;;5.40;3.10;;;;;;;;;;5002948;28;20036;-75
2022/05/14 12:09:31;;;;;;;5.88;2.80;;;;;;;;;;5004952;28;20060;-75
2022/05/14 12:12:03;;;;;;;6.82;2.83;;;;;;;;;;5004773;28;20041;-75
2022/05/14 12:14:34;;;;;;;6.03;2.70;;;;;;;;;;5005706;28;20534;-75
2022/05/14 12:17:02;;;;;;;6.72;2.78;;;;;;;;;;5009980;28;20129;-75
2022/05/14 12:19:29;;;;;;;7.90;3.13;;;;;;;;;;5007188;28;20026;-75
2022/05/14 12:22:01;;;;;;;5.70;2.45;;;;;;;;;;5003458;28;20069;-76
2022/05/14 12:24:29;;;;;;;6.00;2.78;;;;;;;;;;5007138;28;20096;-75
2022/05/14 12:26:55;;;;;;;7.32;2.78;;;;;;;;;;5006713;28;20069;-75
2022/05/14 12:29:23;;;;;;;5.47;2.42;;;;;;;;;;5003846;28;20037;-75
2022/05/14 12:34:42;;;;;;;5.10;2.70;;;;;;;;;;5006737;28;20163;-75
2022/05/14 12:37:20;;;;;;;7.40;2.13;;;;;;;;;;5006416;28;20534;-75
2022/05/14 12:39:46;;;;;;;8.45;2.63;;;;;;;;;;5007251;28;20571;-75
2022/05/14 12:42:13;;;;;;;6.50;2.72;;;;;;;;;;5005375;28;20033;-75
2022/05/14 12:44:44;;;;;;;4.75;2.33;;;;;;;;;;5010130;28;20084;-75
2022/05/14 12:47:10;;;;;;;7.70;2.65;;;;;;;;;;5011371;28;20757;-75
2022/05/14 12:49:38;;;;;;;11.10;2.75;;;;;;;;;;5005579;28;20034;-75
2022/05/14 12:52:08;;;;;;;5.03;2.10;;;;;;;;;;5011700;28;20029;-75
2022/05/14 12:54:35;;;;;;;6.90;2.67;;;;;;;;;;5006507;28;20045;-75
2022/05/14 12:57:03;;;;;;;7.45;2.47;;;;;;;;;;5004768;28;20566;-75
2022/05/14 12:59:29;;;;;;;8.88;2.45;;;;;;;;;;5004369;28;20041;-75
2022/05/14 13:02:01;;;;;;;7.18;2.40;;;;;;;;;;5006488;28;20379;-75
2022/05/14 13:04:31;;;;;;;5.78;2.47;;;;;;;;;;5000856;28;20030;-75
2022/05/14 13:06:59;;;;;;;5.22;2.33;;;;;;;;;;5004549;28;20034;-75
2022/05/14 13:09:27;;;;;;;5.15;2.30;;;;;;;;;;5003433;28;20096;-75
2022/05/14 13:11:54;;;;;;;8.65;2.67;;;;;;;;;;5007025;28;20026;-75
2022/05/14 13:14:23;;;;;;;5.25;2.40;;;;;;;;;;5008346;28;20029;-75
2022/05/14 13:16:54;;;;;;;5.93;2.53;;;;;;;;;;5006098;28;20125;-75
2022/05/14 13:19:29;;;;;;;5.53;2.40;;;;;;;;;;5009310;28;20901;-75
2022/05/14 13:21:56;;;;;;;5.50;2.47;;;;;;;;;;5006335;28;20038;-75
2022/05/14 13:24:30;;;;;;;10.57;2.97;;;;;;;;;;5009872;28;20026;-75
2022/05/14 13:26:58;;;;;;;9.27;2.35;;;;;;;;;;5003555;28;20049;-75
2022/05/14 13:29:26;;;;;;;4.43;2.13;;;;;;;;;;5003270;28;20137;-75
2022/05/14 13:32:03;;;;;;;7.75;2.33;;;;;;;;;;5005358;28;20108;-75
2022/05/14 13:37:15;;;;;;;6.65;2.40;;;;;;;;;;5005264;28;20783;-75
2022/05/14 13:39:52;;;;;;;5.78;2.33;;;;;;;;;;5002922;28;20029;-75
2022/05/14 13:42:25;;;;;;;9.38;2.25;;;;;;;;;;5009514;28;20430;-75
2022/05/14 13:44:54;;;;;;;11.80;2.45;;;;;;;;;;5006885;28;20029;-75
2022/05/14 13:47:22;;;;;;;7.95;2.97;;;;;;;;;;5004413;28;20033;-75
2022/05/14 13:49:52;;;;;;;6.20;2.72;;;;;;;;;;5002821;28;20018;-75
2022/05/14 13:52:24;;;;;;;10.65;2.40;;;;;;;;;;5003473;28;20045;-75
2022/05/14 13:55:00;;;;;;;6.93;2.72;;;;;;;;;;5007552;28;20467;-75
2022/05/14 13:57:26;;;;;;;6.78;2.38;;;;;;;;;;4998856;28;20077;-75
2022/05/14 14:00:21;;;;;;;8.43;2.58;;;;;;;;;;5005334;28;20871;-75
2022/05/14 14:03:04;;;;;;;7.15;2.20;;;;;;;;;;4985568;28;20365;-76
2022/05/14 14:05:32;;;;;;;6.78;2.50;;;;;;;;;;5002741;28;20060;-75
2022/05/14 14:07:58;;;;;;;5.70;2.70;;;;;;;;;;4998285;28;20502;-74
2022/05/14 14:10:32;;;;;;;4.45;2.40;;;;;;;;;;4996695;28;20025;-75
2022/05/14 14:12:59;;;;;;;7.03;2.30;;;;;;;;;;5001879;28;20041;-75
2022/05/14 14:15:26;;;;;;;11.50;2.30;;;;;;;;;;5003846;28;20034;-75
2022/05/14 14:17:52;;;;;;;8.38;2.28;;;;;;;;;;5002716;28;20045;-75
2022/05/14 14:20:19;;;;;;;5.28;2.35;;;;;;;;;;5000167;28;20065;-74
2022/05/14 14:22:45;;;;;;;6.80;2.90;;;;;;;;;;5001097;28;20030;-75
2022/05/14 14:25:12;;;;;;;7.18;2.70;;;;;;;;;;5000698;28;20030;-75
2022/05/14 14:27:39;;;;;;;8.07;2.05;;;;;;;;;;5001483;28;20045;-75
2022/05/14 14:30:06;;;;;;;4.97;1.92;;;;;;;;;;5001155;28;20037;-75
2022/05/14 14:32:32;;;;;;;5.38;2.05;;;;;;;;;;5003223;28;20040;-75
2022/05/14 14:34:59;;;;;;;3.97;1.80;;;;;;;;;;5003623;28;20022;-75
2022/05/14 14:37:25;;;;;;;6.55;2.58;;;;;;;;;;4998091;28;20824;-75
2022/05/14 14:39:51;;;;;;;6.75;2.03;;;;;;;;;;5009023;28;20018;-76
2022/05/14 14:42:18;;;;;;;5.75;1.95;;;;;;;;;;5007981;28;20033;-75
2022/05/14 14:44:45;;;;;;;13.10;2.72;;;;;;;;;;5011016;28;20117;-75
2022/05/14 14:47:11;;;;;;;8.68;2.22;;;;;;;;;;5009447;28;20034;-76
2022/05/14 14:49:37;;;;;;;6.20;2.03;;;;;;;;;;5006896;28;20806;-75
2022/05/14 14:52:04;;;;;;;6.35;1.75;;;;;;;;;;5005884;28;20038;-75
2022/05/14 14:54:30;;;;;;;3.97;1.42;;;;;;;;;;5009675;28;20026;-75
2022/05/14 14:56:56;;;;;;;5.72;1.60;;;;;;;;;;5005528;28;20034;-75
2022/05/14 14:59:21;;;;;;;4.18;1.40;;;;;;;;;;4997930;28;20038;-77
2022/05/14 15:01:50;;;;;;;4.63;1.30;;;;;;;;;;4997023;28;20035;-76
2022/05/14 15:04:22;;;;;;;4.25;1.30;;;;;;;;;;5000655;28;20034;-76
2022/05/14 15:06:50;;;;;;;4.15;1.30;;;;;;;;;;5002886;28;20038;-76
2022/05/14 15:09:16;;;;;;;6.13;1.30;;;;;;;;;;5000566;28;20038;-76